createdAt,value
2022-11-12T00:02:15.803Z,101458.43
2022-11-12T00:05:02.526Z,101455.66
2022-11-12T00:07:48.718Z,101454.96
2022-11-12T00:10:34.723Z,101456.36
2022-11-12T00:13:20.596Z,101451.85
2022-11-12T00:16:07.817Z,101457.41
2022-11-12T00:18:53.500Z,101457.23
2022-11-12T00:21:39.621Z,101459.87
2022-11-12T00:24:25.176Z,101470.98
2022-11-12T00:27:11.736Z,101468.55
2022-11-12T00:29:57.430Z,101467.50
2022-11-12T00:32:43.082Z,101470.61
2022-11-12T00:35:28.948Z,101464.51
2022-11-12T00:38:14.887Z,101467.09
2022-11-12T00:41:03.251Z,101468.27
2022-11-12T00:43:48.704Z,101464.61
2022-11-12T00:46:34.211Z,101465.48
2022-11-12T00:49:20.141Z,101467.41
2022-11-12T00:52:06.024Z,101466.90
2022-11-12T00:54:51.929Z,101464.96
2022-11-12T00:57:38.104Z,101464.42
2022-11-12T01:00:24.131Z,101456.91
2022-11-12T01:03:09.960Z,101454.48
2022-11-12T01:05:55.730Z,101456.04
2022-11-12T01:08:43.223Z,101456.91
2022-11-12T01:11:31.136Z,101456.21
2022-11-12T01:14:16.923Z,101452.90
2022-11-12T01:17:03.018Z,101451.34
2022-11-12T01:19:49.123Z,101445.48
2022-11-12T01:22:34.999Z,101447.43
2022-11-12T01:25:21.404Z,101443.30
2022-11-12T01:28:07.197Z,101443.11
2022-11-12T01:30:53.609Z,101444.35
2022-11-12T01:33:39.688Z,101446.06
2022-11-12T01:36:26.703Z,101446.20
2022-11-12T01:39:12.326Z,101448.63
2022-11-12T01:41:58.499Z,101447.70
2022-11-12T01:44:48.716Z,101453.77
2022-11-12T01:47:37.336Z,101453.40
2022-11-12T01:50:28.443Z,101455.14
2022-11-12T01:53:16.138Z,101460.85
2022-11-12T01:56:01.064Z,101460.33
2022-11-12T01:58:50.309Z,101463.10
2022-11-12T02:01:37.850Z,101460.30
2022-11-12T02:04:24.335Z,101459.60
2022-11-12T02:07:11.195Z,101461.31
2022-11-12T02:09:57.554Z,101462.85
2022-11-12T02:13:01.806Z,101457.10
2022-11-12T02:15:48.021Z,101457.10
2022-11-12T02:18:33.896Z,101460.79
2022-11-12T02:21:22.959Z,101455.96
2022-11-12T02:24:22.883Z,101453.85
2022-11-12T02:27:09.136Z,101455.09
2022-11-12T02:29:55.076Z,101452.17
2022-11-12T02:32:40.703Z,101456.01
2022-11-12T02:35:26.356Z,101457.94
2022-11-12T02:38:12.806Z,101459.68
2022-11-12T02:40:58.697Z,101457.59
2022-11-12T02:43:44.954Z,101460.17
2022-11-12T02:46:30.519Z,101461.75
2022-11-12T02:49:16.353Z,101463.51
2022-11-12T02:52:02.141Z,101464.17
2022-11-12T02:54:48.031Z,101462.61
2022-11-12T02:57:33.716Z,101462.77
2022-11-12T03:00:19.929Z,101462.25
2022-11-12T03:03:05.853Z,101461.41
2022-11-12T03:05:58.101Z,101464.20
2022-11-12T03:08:43.969Z,101466.79
2022-11-12T03:11:29.780Z,101471.12
2022-11-12T03:14:15.854Z,101470.95
2022-11-12T03:17:01.233Z,101475.30
2022-11-12T03:19:46.807Z,101476.52
2022-11-12T03:22:32.707Z,101480.36
2022-11-12T03:25:18.701Z,101479.48
2022-11-12T03:28:06.157Z,101482.30
2022-11-12T03:30:52.381Z,101486.69
2022-11-12T03:33:38.282Z,101485.82
2022-11-12T03:36:24.158Z,101480.97
2022-11-12T03:39:10.092Z,101489.67
2022-11-12T03:41:55.787Z,101494.73
2022-11-12T03:44:41.249Z,101493.70
2022-11-12T03:47:26.755Z,101491.11
2022-11-12T03:50:13.634Z,101489.38
2022-11-12T03:53:01.108Z,101488.67
2022-11-12T03:55:46.837Z,101483.29
2022-11-12T03:58:32.732Z,101483.45
2022-11-12T04:01:18.757Z,101482.45
2022-11-12T04:04:05.268Z,101479.33
2022-11-12T04:07:08.567Z,101478.98
2022-11-12T04:09:54.697Z,101477.63
2022-11-12T04:13:03.319Z,101477.52
2022-11-12T04:16:08.256Z,101475.30
2022-11-12T04:19:14.111Z,101478.98
2022-11-12T04:22:03.702Z,101480.27
2022-11-12T04:25:06.725Z,101477.66
2022-11-12T04:27:52.485Z,101475.58
2022-11-12T04:30:38.217Z,101475.76
2022-11-12T04:33:24.165Z,101476.10
2022-11-12T04:36:10.167Z,101473.34
2022-11-12T04:38:55.679Z,101474.05
2022-11-12T04:41:58.954Z,101473.20
2022-11-12T04:45:01.515Z,101473.23
2022-11-12T04:47:47.693Z,101466.27
2022-11-12T04:50:34.003Z,101468.53
2022-11-12T04:53:20.084Z,101468.55
2022-11-12T04:56:06.340Z,101473.07
2022-11-12T04:58:51.670Z,101471.56
2022-11-12T05:01:37.451Z,101470.59
2022-11-12T05:04:23.272Z,101476.34
2022-11-12T05:07:08.790Z,101483.82
2022-11-12T05:09:54.434Z,101479.48
2022-11-12T05:12:40.427Z,101476.40
2022-11-12T05:15:26.176Z,101482.15
2022-11-12T05:18:11.885Z,101481.31
2022-11-12T05:20:57.538Z,101486.52
2022-11-12T05:23:43.313Z,101485.17
2022-11-12T05:26:29.328Z,101481.57
2022-11-12T05:29:14.631Z,101478.64
2022-11-12T05:32:00.211Z,101484.20
2022-11-12T05:34:45.909Z,101489.59
2022-11-12T05:37:31.552Z,101491.82
2022-11-12T05:40:17.899Z,101495.80
2022-11-12T05:43:03.987Z,101500.67
2022-11-12T05:45:49.586Z,101502.74
2022-11-12T05:48:35.189Z,101500.35
2022-11-12T05:51:20.735Z,101498.29
2022-11-12T05:54:07.178Z,101505.08
2022-11-12T05:56:54.456Z,101511.35
2022-11-12T05:59:38.443Z,101513.09
2022-11-12T06:02:24.618Z,101513.77
2022-11-12T06:05:11.235Z,101518.66
2022-11-12T06:07:57.011Z,101520.94
2022-11-12T06:10:42.345Z,101519.23
2022-11-12T06:13:28.674Z,101518.36
2022-11-12T06:16:14.456Z,101518.88
2022-11-12T06:19:00.429Z,101520.27
2022-11-12T06:21:45.873Z,101521.33
2022-11-12T06:24:35.367Z,101522.52
2022-11-12T06:27:21.096Z,101523.05
2022-11-12T06:30:08.940Z,101525.63
2022-11-12T06:32:54.575Z,101527.21
2022-11-12T06:35:42.968Z,101525.98
2022-11-12T06:38:29.021Z,101528.08
2022-11-12T06:41:15.794Z,101527.08
2022-11-12T06:44:01.256Z,101526.05
2022-11-12T06:46:46.776Z,101528.66
2022-11-12T06:49:33.079Z,101533.87
2022-11-12T06:52:19.350Z,101540.45
2022-11-12T06:55:05.180Z,101541.65
2022-11-12T06:57:54.433Z,101538.36
2022-11-12T07:00:40.335Z,101543.73
2022-11-12T07:03:25.904Z,101545.98
2022-11-12T07:06:14.214Z,101550.31
2022-11-12T07:08:59.936Z,101550.48
2022-11-12T07:11:46.572Z,101550.84
2022-11-12T07:14:32.047Z,101553.63
2022-11-12T07:17:17.711Z,101556.05
2022-11-12T07:20:04.310Z,101557.94
2022-11-12T07:22:50.308Z,101555.87
2022-11-12T07:25:35.911Z,101559.32
2022-11-12T07:28:21.437Z,101558.29
2022-11-12T07:31:09.615Z,101559.16
2022-11-12T07:33:55.811Z,101556.39
2022-11-12T07:36:42.008Z,101556.39
2022-11-12T07:39:27.806Z,101554.31
2022-11-12T07:42:14.199Z,101564.20
2022-11-12T07:44:59.973Z,101566.11
2022-11-12T07:47:46.181Z,101570.24
2022-11-12T07:50:32.353Z,101568.70
2022-11-12T07:53:18.062Z,101569.38
2022-11-12T07:56:05.673Z,101566.43
2022-11-12T07:58:50.612Z,101565.23
2022-11-12T08:01:38.032Z,101561.25
2022-11-12T08:04:24.411Z,101560.38
2022-11-12T08:07:11.021Z,101559.68
2022-11-12T08:09:56.813Z,101561.93
2022-11-12T08:12:42.978Z,101562.97
2022-11-12T08:15:29.488Z,101563.15
2022-11-12T08:18:15.544Z,101563.67
2022-11-12T08:21:05.040Z,101562.77
2022-11-12T08:23:51.018Z,101564.34
2022-11-12T08:26:36.744Z,101569.19
2022-11-12T08:29:23.435Z,101573.50
2022-11-12T08:32:10.121Z,101566.38
2022-11-12T08:34:56.589Z,101568.11
2022-11-12T08:37:42.390Z,101570.38
2022-11-12T08:40:28.962Z,101571.06
2022-11-12T08:43:15.034Z,101576.79
2022-11-12T08:46:03.985Z,101575.40
2022-11-12T08:48:49.883Z,101574.67
2022-11-12T08:51:35.766Z,101580.54
2022-11-12T08:54:21.661Z,101580.20
2022-11-12T08:57:07.840Z,101584.00
2022-11-12T08:59:53.870Z,101581.55
2022-11-12T09:02:40.064Z,101579.63
2022-11-12T09:05:25.624Z,101582.94
2022-11-12T09:08:13.165Z,101585.17
2022-11-12T09:11:00.795Z,101591.59
2022-11-12T09:13:46.918Z,101594.70
2022-11-12T09:16:32.783Z,101594.00
2022-11-12T09:19:20.034Z,101593.64
2022-11-12T09:22:06.238Z,101600.75
2022-11-12T09:24:52.037Z,101605.06
2022-11-12T09:27:37.977Z,101603.66
2022-11-12T09:30:24.127Z,101600.00
2022-11-12T09:33:09.983Z,101600.35
2022-11-12T09:35:56.481Z,101596.36
2022-11-12T09:38:42.117Z,101597.91
2022-11-12T09:41:33.626Z,101600.34
2022-11-12T09:44:22.184Z,101601.73
2022-11-12T09:47:13.821Z,101600.17
2022-11-12T09:50:12.177Z,101600.33
2022-11-12T09:53:06.339Z,101602.95
2022-11-12T09:55:52.562Z,101605.56
2022-11-12T09:58:38.586Z,101608.85
2022-11-12T10:01:38.144Z,101604.50
2022-11-12T10:04:47.704Z,101603.59
2022-11-12T10:07:57.115Z,101603.95
2022-11-12T10:10:48.367Z,101607.11
2022-11-12T10:13:47.727Z,101613.88
2022-11-12T10:16:52.448Z,101609.01
2022-11-12T10:20:00.249Z,101600.70
2022-11-12T10:23:03.759Z,101606.23
2022-11-12T10:25:51.886Z,101614.01
2022-11-12T10:28:43.687Z,101617.96
2022-11-12T10:31:29.302Z,101623.52
2022-11-12T10:34:22.452Z,101619.16
2022-11-12T10:37:13.992Z,101625.36
2022-11-12T10:40:00.012Z,101622.75
2022-11-12T10:43:00.011Z,101624.50
2022-11-12T10:45:46.556Z,101625.72
2022-11-12T10:48:34.731Z,101622.80
2022-11-12T10:51:28.721Z,101618.48
2022-11-12T10:54:31.930Z,101620.20
2022-11-12T10:57:26.415Z,101618.29
2022-11-12T11:00:19.499Z,101619.52
2022-11-12T11:03:07.519Z,101616.90
2022-11-12T11:05:55.586Z,101619.69
2022-11-12T11:08:46.766Z,101623.83
2022-11-12T11:11:33.260Z,101622.77
2022-11-12T11:14:34.140Z,101625.36
2022-11-12T11:17:21.180Z,101625.54
2022-11-12T11:20:07.764Z,101623.98
2022-11-12T11:22:57.617Z,101619.98
2022-11-12T11:25:47.710Z,101621.90
2022-11-12T11:28:40.245Z,101621.38
2022-11-12T11:31:37.963Z,101621.89
2022-11-12T11:34:34.636Z,101620.48
2022-11-12T11:37:29.251Z,101617.86
2022-11-12T11:40:21.881Z,101626.36
2022-11-12T11:43:31.362Z,101625.50
2022-11-12T11:46:31.042Z,101626.36
2022-11-12T11:52:51.720Z,101631.21
2022-11-12T11:55:47.317Z,101631.74
2022-11-12T11:58:49.190Z,101628.96
2022-11-12T12:01:48.598Z,101626.72
2022-11-12T12:04:49.525Z,101629.52
2022-11-12T12:07:45.020Z,101626.73
2022-11-12T12:11:06.299Z,101620.84
2022-11-12T12:14:01.825Z,101620.66
2022-11-12T12:16:57.868Z,101622.62
2022-11-12T12:19:58.253Z,101621.42
2022-11-12T12:22:50.540Z,101624.70
2022-11-12T12:25:40.210Z,101619.11
2022-11-12T12:28:35.882Z,101624.67
2022-11-12T12:31:28.536Z,101618.06
2022-11-12T12:34:24.659Z,101609.02
2022-11-12T12:37:23.259Z,101616.81
2022-11-12T12:40:18.760Z,101610.90
2022-11-12T12:43:11.733Z,101614.72
2022-11-12T12:46:00.062Z,101612.12
2022-11-12T12:48:48.106Z,101614.39
2022-11-12T12:51:36.045Z,101618.37
2022-11-12T12:55:00.943Z,101613.52
2022-11-12T12:57:47.167Z,101612.95
2022-11-12T13:00:36.550Z,101619.75
2022-11-12T13:03:52.960Z,101616.46
2022-11-12T13:06:55.621Z,101611.09
2022-11-12T13:09:41.903Z,101610.73
2022-11-12T13:13:07.350Z,101616.13
2022-11-12T13:15:55.664Z,101617.49
2022-11-12T13:19:03.946Z,101617.68
2022-11-12T13:22:09.369Z,101619.75
2022-11-12T13:25:26.063Z,101619.55
2022-11-12T13:28:14.405Z,101625.79
2022-11-12T13:31:03.461Z,101625.61
2022-11-12T13:33:49.640Z,101626.66
2022-11-12T13:36:35.491Z,101630.85
2022-11-12T13:39:23.450Z,101630.69
2022-11-12T13:42:35.272Z,101630.19
2022-11-12T13:45:23.722Z,101629.48
2022-11-12T13:48:15.000Z,101629.14
2022-11-12T13:51:06.265Z,101629.16
2022-11-12T13:53:52.090Z,101629.16
2022-11-12T13:56:39.247Z,101623.77
2022-11-12T13:59:26.873Z,101622.40
2022-11-12T14:02:23.375Z,101623.08
2022-11-12T14:05:17.158Z,101622.91
2022-11-12T14:08:24.138Z,101620.30
2022-11-12T14:11:39.776Z,101626.38
2022-11-12T14:14:38.610Z,101624.66
2022-11-12T14:17:32.753Z,101627.29
2022-11-12T14:20:36.353Z,101629.59
2022-11-12T14:23:25.350Z,101628.90
2022-11-12T14:26:14.751Z,101625.59
2022-11-12T14:29:01.218Z,101621.96
2022-11-12T14:31:47.891Z,101625.44
2022-11-12T14:34:34.970Z,101625.41
2022-11-12T14:37:41.714Z,101624.89
2022-11-12T14:40:28.697Z,101625.19
2022-11-12T14:43:27.936Z,101621.87
2022-11-12T14:46:26.747Z,101623.78
2022-11-12T14:49:18.253Z,101620.30
2022-11-12T14:52:10.678Z,101619.25
2022-11-12T14:54:59.044Z,101624.48
2022-11-12T14:57:45.214Z,101627.06
2022-11-12T15:00:44.323Z,101626.88
2022-11-12T15:03:35.862Z,101624.45
2022-11-12T15:06:29.626Z,101624.82
2022-11-12T15:09:21.970Z,101627.58
2022-11-12T15:12:11.371Z,101622.20
2022-11-12T15:15:08.741Z,101626.36
2022-11-12T15:18:02.469Z,101630.02
2022-11-12T15:21:03.536Z,101634.35
2022-11-12T15:23:54.275Z,101631.06
2022-11-12T15:26:42.227Z,101626.22
2022-11-12T15:29:31.974Z,101637.14
2022-11-12T15:32:35.595Z,101635.04
2022-11-12T15:35:35.344Z,101635.05
2022-11-12T15:38:27.122Z,101640.40
2022-11-12T15:41:26.098Z,101640.52
2022-11-12T15:44:13.445Z,101645.54
2022-11-12T15:47:00.166Z,101641.89
2022-11-12T15:49:52.832Z,101644.48
2022-11-12T15:52:39.319Z,101641.85
2022-11-12T15:55:25.325Z,101639.91
2022-11-12T15:58:18.216Z,101645.98
2022-11-12T16:01:04.397Z,101648.58
2022-11-12T16:03:50.465Z,101651.89
2022-11-12T16:06:36.569Z,101656.21
2022-11-12T16:09:22.364Z,101661.05
2022-11-12T16:12:11.694Z,101664.34
2022-11-12T16:14:59.483Z,101669.83
2022-11-12T16:17:46.109Z,101669.61
2022-11-12T16:20:34.603Z,101668.75
2022-11-12T16:23:20.483Z,101679.34
2022-11-12T16:26:09.839Z,101678.81
2022-11-12T16:28:55.744Z,101679.83
2022-11-12T16:31:44.397Z,101680.33
2022-11-12T16:34:30.288Z,101675.84
2022-11-12T16:37:16.599Z,101679.83
2022-11-12T16:40:02.535Z,101676.52
2022-11-12T16:42:48.269Z,101683.64
2022-11-12T16:45:40.147Z,101677.21
2022-11-12T16:48:26.519Z,101684.67
2022-11-12T16:51:18.772Z,101681.18
2022-11-12T16:54:04.871Z,101672.85
2022-11-12T16:56:50.906Z,101671.13
2022-11-12T16:59:37.671Z,101675.14
2022-11-12T17:02:24.103Z,101678.09
2022-11-12T17:05:15.262Z,101685.23
2022-11-12T17:08:00.917Z,101686.45
2022-11-12T17:10:46.767Z,101679.84
2022-11-12T17:13:32.598Z,101674.27
2022-11-12T17:16:18.390Z,101674.42
2022-11-12T17:19:05.602Z,101670.08
2022-11-12T17:21:51.391Z,101673.91
2022-11-12T17:24:36.928Z,101674.10
2022-11-12T17:27:22.641Z,101674.98
2022-11-12T17:30:11.379Z,101671.87
2022-11-12T17:32:56.922Z,101667.87
2022-11-12T17:35:42.409Z,101668.73
2022-11-12T17:38:28.227Z,101677.60
2022-11-12T17:41:14.036Z,101680.04
2022-11-12T17:44:01.133Z,101673.60
2022-11-12T17:46:47.256Z,101672.73
2022-11-12T17:49:32.778Z,101671.00
2022-11-12T17:52:18.730Z,101677.61
2022-11-12T17:55:04.839Z,101679.87
2022-11-12T17:57:51.396Z,101675.86
2022-11-12T18:00:38.547Z,101679.15
2022-11-12T18:03:24.678Z,101678.79
2022-11-12T18:06:13.605Z,101673.41
2022-11-12T18:09:01.312Z,101677.08
2022-11-12T18:11:49.145Z,101669.27
2022-11-12T18:14:35.270Z,101671.88
2022-11-12T18:17:20.743Z,101679.19
2022-11-12T18:20:07.736Z,101679.20
2022-11-12T18:22:53.306Z,101670.19
2022-11-12T18:25:39.767Z,101664.31
2022-11-12T18:28:25.508Z,101671.97
2022-11-12T18:31:14.256Z,101667.98
2022-11-12T18:33:59.998Z,101668.69
2022-11-12T18:36:46.284Z,101669.04
2022-11-12T18:39:32.478Z,101669.91
2022-11-12T18:42:18.532Z,101668.52
2022-11-12T18:45:09.778Z,101668.73
2022-11-12T18:47:55.860Z,101677.97
2022-11-12T18:50:41.765Z,101679.05
2022-11-12T18:53:27.705Z,101678.53
2022-11-12T18:56:14.959Z,101679.24
2022-11-12T18:59:00.967Z,101675.09
2022-11-12T19:01:46.967Z,101675.96
2022-11-12T19:04:33.191Z,101674.06
2022-11-12T19:07:19.164Z,101675.80
2022-11-12T19:10:14.615Z,101676.84
2022-11-12T19:13:04.059Z,101677.17
2022-11-12T19:15:49.752Z,101684.48
2022-11-12T19:18:35.740Z,101677.71
2022-11-12T19:21:23.859Z,101677.56
2022-11-12T19:24:09.933Z,101682.80
2022-11-12T19:26:55.895Z,101680.36
2022-11-12T19:29:41.823Z,101680.89
2022-11-12T19:32:27.710Z,101682.11
2022-11-12T19:35:13.925Z,101686.98
2022-11-12T19:37:59.862Z,101684.71
2022-11-12T19:40:45.837Z,101682.64
2022-11-12T19:43:31.650Z,101679.52
2022-11-12T19:46:18.228Z,101677.98
2022-11-12T19:49:03.910Z,101685.48
2022-11-12T19:51:49.751Z,101679.58
2022-11-12T19:54:35.194Z,101684.95
2022-11-12T19:57:21.576Z,101689.65
2022-11-12T20:00:10.909Z,101688.09
2022-11-12T20:02:56.185Z,101696.61
2022-11-12T20:05:42.644Z,101687.59
2022-11-12T20:08:28.801Z,101693.31
2022-11-12T20:11:16.275Z,101698.16
2022-11-12T20:14:02.572Z,101686.88
2022-11-12T20:16:49.517Z,101685.16
2022-11-12T20:19:35.099Z,101697.16
2022-11-12T20:22:21.137Z,101704.27
2022-11-12T20:25:07.946Z,101698.38
2022-11-12T20:27:53.349Z,101699.94
2022-11-12T20:30:39.258Z,101700.11
2022-11-12T20:33:25.476Z,101706.87
2022-11-12T20:36:13.612Z,101708.43
2022-11-12T20:39:00.330Z,101703.74
2022-11-12T20:41:45.846Z,101703.21
2022-11-12T20:44:31.712Z,101711.55
2022-11-12T20:47:17.524Z,101713.46
2022-11-12T20:50:03.383Z,101710.86
2022-11-12T20:52:49.385Z,101709.81
2022-11-12T20:55:35.032Z,101706.70
2022-11-12T20:58:20.798Z,101710.34
2022-11-12T21:01:08.238Z,101707.76
2022-11-12T21:03:53.910Z,101707.59
2022-11-12T21:06:39.624Z,101700.81
2022-11-12T21:09:27.058Z,101704.11
2022-11-12T21:12:12.916Z,101700.46
2022-11-12T21:14:58.867Z,101700.65
2022-11-12T21:17:44.971Z,101701.88
2022-11-12T21:20:30.682Z,101693.90
2022-11-12T21:23:16.260Z,101695.81
2022-11-12T21:26:07.297Z,101699.29
2022-11-12T21:28:54.388Z,101702.42
2022-11-12T21:31:38.660Z,101703.64
2022-11-12T21:34:24.272Z,101700.17
2022-11-12T21:37:10.325Z,101700.00
2022-11-12T21:39:56.601Z,101701.91
2022-11-12T21:42:44.365Z,101707.96
2022-11-12T21:45:30.155Z,101705.36
2022-11-12T21:48:15.634Z,101707.80
2022-11-12T21:51:07.478Z,101713.70
2022-11-12T21:53:56.246Z,101711.28
2022-11-12T21:56:42.239Z,101716.66
2022-11-12T21:59:28.586Z,101712.32
2022-11-12T22:02:15.598Z,101709.89
2022-11-12T22:05:01.339Z,101712.48
2022-11-12T22:07:47.220Z,101713.69
2022-11-12T22:10:32.942Z,101710.91
2022-11-12T22:13:27.016Z,101708.66
2022-11-12T22:16:15.710Z,101708.84
2022-11-12T22:19:02.281Z,101708.67
2022-11-12T22:21:47.902Z,101707.30
2022-11-12T22:24:33.515Z,101705.55
2022-11-12T22:27:20.050Z,101712.48
2022-11-12T22:30:06.701Z,101714.74
2022-11-12T22:32:52.179Z,101708.67
2022-11-12T22:35:38.029Z,101703.45
2022-11-12T22:38:23.893Z,101701.71
2022-11-12T22:41:11.264Z,101705.01
2022-11-12T22:43:59.174Z,101701.02
2022-11-12T22:46:43.256Z,101705.71
2022-11-12T22:49:29.089Z,101706.07
2022-11-12T22:52:14.629Z,101704.00
2022-11-12T22:55:00.439Z,101709.20
2022-11-12T22:57:46.266Z,101718.02
2022-11-12T23:00:33.497Z,101708.84
2022-11-12T23:03:19.442Z,101700.69
2022-11-12T23:06:07.366Z,101698.09
2022-11-12T23:08:53.832Z,101695.83
2022-11-12T23:11:40.214Z,101697.75
2022-11-12T23:14:26.323Z,101702.09
2022-11-12T23:17:12.356Z,101699.81
2022-11-12T23:19:57.999Z,101705.02
2022-11-12T23:22:43.577Z,101702.27
2022-11-12T23:25:29.658Z,101702.08
2022-11-12T23:28:15.273Z,101702.77
2022-11-12T23:31:01.202Z,101699.30
2022-11-12T23:33:51.345Z,101701.37
2022-11-12T23:36:37.101Z,101700.67
2022-11-12T23:39:22.583Z,101698.09
2022-11-12T23:42:08.475Z,101697.42
2022-11-12T23:44:55.189Z,101692.74
2022-11-12T23:47:41.096Z,101689.80
2022-11-12T23:50:27.161Z,101690.16
